Time;durP1;ratioP1;P1;durP2;ratioP2;P2;SDS_P1;SDS_P2;PMS_P1;PMS_P2;Temp;Humidity;BMP_temperature;BMP_pressure;BME280_temperature;BME280_humidity;BME280_pressure;Samples;Min_cycle;Max_cycle;Signal;HPM_P1;HPM_P2
2023/10/10 00:01:44;;;;;;;8.68;7.93;;;;;;;15.36;100.00;152548.88;10543581;28;20051;-72
2023/10/10 00:06:49;;;;;;;8.35;7.65;;;;;;;15.37;100.00;152550.19;10543498;28;20036;-72
2023/10/10 00:11:53;;;;;;;8.73;8.02;;;;;;;15.26;100.00;152521.66;10542112;28;20047;-72
2023/10/10 00:16:55;;;;;;;8.80;7.95;;;;;;;15.27;100.00;152524.22;10541369;28;20045;-72
2023/10/10 00:21:57;;;;;;;8.77;7.97;;;;;;;15.38;100.00;152554.03;10542792;28;20139;-72
2023/10/10 00:27:07;;;;;;;15.18;7.45;;;;;;;15.28;100.00;152528.16;10543493;28;20067;-72
2023/10/10 00:32:16;;;;;;;7.93;7.32;;;;;;;15.13;100.00;152489.25;10542070;28;20546;-72
2023/10/10 00:37:25;;;;;;;7.72;7.13;;;;;;;15.21;100.00;152510.00;10524801;28;20115;-72
2023/10/10 00:42:38;;;;;;;8.88;8.07;;;;;;;15.08;100.00;152477.59;10523372;28;20047;-72
2023/10/10 00:47:47;;;;;;;7.55;6.85;;;;;;;15.22;100.00;152511.28;10542353;28;20040;-72
2023/10/10 00:52:53;;;;;;;8.02;7.32;;;;;;;15.16;100.00;152495.75;10522841;28;20048;-72
2023/10/10 00:57:58;;;;;;;7.63;7.03;;;;;;;15.04;100.00;152467.22;10541089;28;20127;-72
2023/10/10 01:03:21;;;;;;;7.43;6.72;;;;;;;15.04;100.00;152467.22;10506299;28;20036;-72
2023/10/10 01:08:26;;;;;;;7.78;7.10;;;;;;;15.14;100.00;152493.16;10505546;28;20054;-72
2023/10/10 01:13:33;;;;;;;7.65;7.05;;;;;;;15.13;100.00;152490.53;10541986;28;20044;-72
2023/10/10 01:18:57;;;;;;;6.22;5.80;;;;;;;15.01;100.00;152459.50;10522621;28;20043;-72
2023/10/10 01:24:11;;;;;;;7.72;7.03;;;;;;;14.81;100.00;152407.66;10540949;28;20036;-72
2023/10/10 01:34:43;;;;;;;7.57;6.90;;;;;;;15.05;100.00;152469.84;10541603;28;20042;-72
2023/10/10 01:39:54;;;;;;;6.55;5.95;;;;;;;15.17;100.00;152498.34;10545896;28;20044;-73
2023/10/10 01:44:56;;;;;;;5.53;5.03;;;;;;;15.07;100.00;152475.03;10512850;28;20535;-72
2023/10/10 01:49:58;;;;;;;5.40;4.90;;;;;;;15.06;100.00;152471.16;10529055;28;20117;-71
2023/10/10 01:55:00;;;;;;;5.63;5.20;;;;;;;15.06;100.00;152471.16;10514394;28;20067;-71
2023/10/10 02:00:19;;;;;;;4.55;4.15;;;;;;;15.09;100.00;152478.88;10512877;28;20052;-72
2023/10/10 02:06:08;;;;;;;4.10;3.70;;;;;;;15.07;100.00;152473.72;10547910;28;20032;-71
2023/10/10 02:10:49;;;;;;;3.50;3.20;;;;;;;14.88;100.00;152425.81;10522722;28;20086;-72
2023/10/10 02:15:53;;;;;;;3.45;3.15;;;;;;;15.04;100.00;152467.22;10529593;28;20074;-72
2023/10/10 02:21:05;;;;;;;3.60;3.30;;;;;;;14.98;100.00;152450.41;10546668;28;20046;-72
2023/10/10 02:26:35;;;;;;;3.80;3.45;;;;;;;14.98;100.00;152450.41;10528426;28;20089;-72
2023/10/10 02:31:41;;;;;;;3.20;3.00;;;;;;;14.80;100.00;152405.06;10527576;28;20080;-72
2023/10/10 02:36:43;;;;;;;3.35;3.05;;;;;;;14.87;100.00;152423.19;10547134;28;20052;-72
2023/10/10 02:41:49;;;;;;;3.25;2.88;;;;;;;15.15;100.00;152494.47;10527534;28;20097;-72
2023/10/10 02:46:53;;;;;;;3.33;3.03;;;;;;;14.93;100.00;152437.47;10527422;28;20047;-71
2023/10/10 02:51:56;;;;;;;3.45;3.15;;;;;;;14.89;100.00;152429.69;10526996;28;20067;-72
2023/10/10 03:02:29;;;;;;;3.97;3.67;;;;;;;14.70;100.00;152380.47;10529328;28;20058;-71
2023/10/10 03:07:32;;;;;;;4.03;3.63;;;;;;;14.68;100.00;152373.97;10544350;28;20134;-72
2023/10/10 03:12:37;;;;;;;4.18;3.88;;;;;;;14.97;100.00;152447.84;10526533;28;20085;-72
2023/10/10 03:23:43;;;;;;;6.18;5.68;;;;;;;14.90;100.00;152430.97;10528609;28;20397;-72
2023/10/10 03:38:57;;;;;;;7.40;6.75;;;;;;;15.01;100.00;152459.50;10525939;28;20043;-72
2023/10/10 05:25:33;;;;;;;2.47;2.25;;;;;;;14.75;100.00;152392.13;10590796;28;20118;-73
2023/10/10 05:30:45;;;;;;;3.95;3.65;;;;;;;14.92;100.00;152436.19;10572999;28;20108;-73
2023/10/10 05:35:47;;;;;;;2.35;2.13;;;;;;;14.74;100.00;152390.84;10572626;28;20122;-73
2023/10/10 05:40:51;;;;;;;2.50;2.10;;;;;;;14.56;100.00;152344.19;10590411;28;20044;-73
2023/10/10 05:45:53;;;;;;;3.83;2.97;;;;;;;14.63;100.00;152363.63;10571777;28;20066;-72
2023/10/10 05:50:55;;;;;;;4.18;3.78;;;;;;;14.88;100.00;152425.81;10590110;28;20050;-73
2023/10/10 05:55:58;;;;;;;3.53;3.17;;;;;;;14.85;100.00;152419.31;10591078;28;20035;-72
2023/10/10 06:01:00;;;;;;;5.40;3.22;;;;;;;14.91;100.00;152432.25;10589354;28;20049;-72
2023/10/10 06:06:03;;;;;;;4.68;4.28;;;;;;;14.84;100.00;152415.44;10589876;28;20131;-73
2023/10/10 06:11:06;;;;;;;4.03;3.25;;;;;;;14.97;100.00;152449.13;10589247;28;20100;-73
2023/10/10 06:16:12;;;;;;;2.30;2.05;;;;;;;14.79;100.00;152402.50;10591141;28;20046;-73
2023/10/10 06:21:15;;;;;;;;;;;;;;;14.78;100.00;152399.88;10590767;28;20101;-73
2023/10/10 06:26:21;;;;;;;4.00;2.95;;;;;;;14.94;100.00;152440.03;10569656;28;20414;-73
2023/10/10 06:31:33;;;;;;;2.97;2.78;;;;;;;14.99;100.00;152454.28;10588953;28;20035;-73
2023/10/10 06:36:37;;;;;;;3.63;3.30;;;;;;;15.19;100.00;152503.53;10589014;28;20039;-73
2023/10/10 06:41:41;;;;;;;10.32;3.97;;;;;;;15.08;100.00;152476.31;10569752;28;20055;-73
2023/10/10 06:46:49;;;;;;;3.60;3.30;;;;;;;15.04;100.00;152467.22;10587520;28;20044;-73
2023/10/10 06:51:55;;;;;;;3.95;3.50;;;;;;;15.02;100.00;152460.78;10587300;28;20095;-73
2023/10/10 07:02:13;;;;;;;4.30;3.70;;;;;;;14.99;100.00;152454.28;10587860;28;20046;-74
2023/10/10 07:07:18;;;;;;;3.95;3.30;;;;;;;15.22;100.00;152511.28;10568345;28;20043;-74
2023/10/10 07:12:20;;;;;;;2.80;2.60;;;;;;;15.39;100.00;152556.63;10586596;28;20048;-73
2023/10/10 07:17:27;;;;;;;3.00;2.70;;;;;;;15.38;100.00;152554.03;10585986;28;20092;-74
2023/10/10 07:22:33;;;;;;;3.30;3.00;;;;;;;15.35;100.00;152546.25;10588104;28;20044;-76
2023/10/10 07:27:39;;;;;;;3.15;2.85;;;;;;;15.29;100.00;152530.72;10586773;28;20035;-77
2023/10/10 07:32:48;;;;;;;2.80;2.55;;;;;;;15.44;100.00;152568.28;10587736;28;20044;-76
2023/10/10 07:37:52;;;;;;;3.40;2.88;;;;;;;15.55;100.00;152596.81;10585006;28;20055;-75
2023/10/10 07:43:03;;;;;;;4.70;4.32;;;;;;;15.51;100.00;152586.44;10586150;28;20047;-76
2023/10/10 07:53:12;;;;;;;3.40;2.67;;;;;;;15.87;100.00;152677.22;10585887;28;20126;-78
2023/10/10 07:58:14;;;;;;;2.15;1.95;;;;;;;16.00;100.00;152710.91;10585419;28;20411;-75
2023/10/10 08:03:22;;;;;;;1.77;1.67;;;;;;;16.11;100.00;152738.13;10585351;28;20040;-76
2023/10/10 08:08:25;;;;;;;2.22;2.03;;;;;;;15.89;100.00;152682.38;10566222;28;20067;-75
2023/10/10 08:13:28;;;;;;;1.63;1.52;;;;;;;15.74;100.00;152643.50;10565673;28;20040;-76
2023/10/10 08:23:46;;;;;;;1.83;1.08;;;;;;;16.33;100.00;152793.88;10584515;28;20089;-75
2023/10/10 08:28:49;;;;;;;1.20;1.02;;;;;;;16.31;99.81;152788.72;10585059;28;20031;-76
2023/10/10 08:33:51;;;;;;;0.80;0.80;;;;;;;16.53;95.04;152845.75;10545368;28;20060;-75
2023/10/10 08:44:18;;;;;;;1.95;0.80;;;;;;;16.33;97.05;152795.16;10523636;28;20068;-75
2023/10/10 08:49:20;;;;;;;0.68;0.43;;;;;;;16.52;92.76;152841.88;10523546;28;20050;-75
2023/10/10 08:54:24;;;;;;;0.90;0.70;;;;;;;16.21;96.79;152762.78;10540578;28;20040;-75
2023/10/10 08:59:32;;;;;;;1.42;0.70;;;;;;;16.16;98.31;152751.13;10540891;28;20064;-75
2023/10/10 09:04:34;;;;;;;0.80;0.60;;;;;;;16.43;93.51;152819.84;10541384;28;20575;-75
2023/10/10 09:09:40;;;;;;;0.70;0.60;;;;;;;16.54;93.34;152848.34;10522341;28;20455;-75
2023/10/10 09:14:49;;;;;;;0.85;0.75;;;;;;;16.45;93.95;152823.72;10541626;28;20068;-75
2023/10/10 09:19:52;;;;;;;0.80;0.68;;;;;;;16.77;88.28;152905.44;10539859;28;20070;-75
2023/10/10 09:24:55;;;;;;;1.60;0.75;;;;;;;16.81;93.84;152917.13;10539595;28;20040;-74
2023/10/10 09:30:00;;;;;;;1.17;0.80;;;;;;;17.14;90.90;153001.47;10540893;28;20051;-76
2023/10/10 09:35:08;;;;;;;0.90;0.55;;;;;;;17.44;85.25;153075.38;10542606;28;20044;-74
2023/10/10 09:40:20;;;;;;;0.80;0.80;;;;;;;17.55;84.76;153105.25;10540264;28;20458;-75
2023/10/10 09:50:45;;;;;;;1.30;1.05;;;;;;;17.48;84.33;153087.06;10540585;28;20140;-74
2023/10/10 09:55:48;;;;;;;1.42;1.13;;;;;;;17.56;87.12;153107.84;10542241;28;20389;-75
2023/10/10 10:00:50;;;;;;;2.17;1.20;;;;;;;17.47;86.63;153084.47;10546065;28;20516;-75
2023/10/10 10:06:01;;;;;;;1.85;1.65;;;;;;;17.47;86.53;153084.47;10548116;28;20036;-75
2023/10/10 10:11:39;;;;;;;3.50;1.42;;;;;;;17.19;89.59;153013.13;10547533;28;20469;-75
2023/10/10 10:16:54;;;;;;;1.73;1.60;;;;;;;17.26;91.45;153029.97;10342894;28;20406;-75
2023/10/10 10:22:42;;;;;;;2.05;1.83;;;;;;;17.23;90.43;153023.53;10320311;28;20079;-75
2023/10/10 10:27:31;;;;;;;2.15;1.60;;;;;;;17.60;87.08;153118.22;10342451;28;20053;-75
2023/10/10 10:32:35;;;;;;;2.00;1.80;;;;;;;17.78;88.73;153162.41;10375923;28;20062;-75
2023/10/10 10:37:39;;;;;;;2.55;2.15;;;;;;;17.32;91.11;153046.88;10378043;28;20054;-75
2023/10/10 10:42:51;;;;;;;1.77;1.60;;;;;;;17.38;90.40;153061.13;10376836;28;20457;-74
2023/10/10 10:47:59;;;;;;;1.90;1.80;;;;;;;17.35;91.22;153054.66;10360206;28;20050;-75
2023/10/10 10:53:08;;;;;;;2.30;2.05;;;;;;;17.90;87.36;153194.84;10499986;28;20446;-74
2023/10/10 11:03:23;;;;;;;2.67;2.47;;;;;;;18.29;83.00;153292.25;10545367;28;20040;-74
2023/10/10 11:24:29;;;;;;;2.17;2.03;;;;;;;18.33;83.67;153302.63;10545204;28;20537;-73
2023/10/10 11:29:41;;;;;;;;;;;;;;;18.62;82.79;153376.63;10545315;28;20040;-73
2023/10/10 11:34:46;;;;;;;1.75;1.65;;;;;;;18.98;79.25;153468.88;10543819;28;19995;-73
2023/10/10 11:39:59;;;;;;;1.80;1.60;;;;;;;18.84;78.87;153432.50;10525644;28;20040;-73
2023/10/10 11:45:05;;;;;;;1.33;1.20;;;;;;;19.16;78.91;153515.63;10545338;28;20056;-74
2023/10/10 11:50:11;;;;;;;1.70;1.20;;;;;;;18.93;79.50;153455.88;10524628;28;20557;-74
2023/10/10 11:55:17;;;;;;;;;;;;;;;18.97;77.76;153465.00;10543737;28;20066;-74
2023/10/10 12:00:22;;;;;;;1.03;0.90;;;;;;;19.36;72.52;153565.03;10526151;28;20006;-76
2023/10/10 12:10:52;;;;;;;1.10;0.95;;;;;;;19.80;70.48;153676.84;10543592;28;20480;-76
2023/10/10 12:15:55;;;;;;;1.52;1.17;;;;;;;19.79;71.69;153674.19;10543124;28;20036;-76
2023/10/10 12:20:58;;;;;;;2.22;1.30;;;;;;;19.90;71.29;153704.09;10542218;28;20068;-76
2023/10/10 12:26:00;;;;;;;2.25;1.38;;;;;;;20.00;72.47;153727.50;10545241;28;20064;-77
2023/10/10 12:31:03;;;;;;;1.63;1.45;;;;;;;20.19;71.71;153776.94;10542414;28;20047;-76
2023/10/10 12:36:09;;;;;;;3.13;1.80;;;;;;;19.90;71.36;153702.81;10542586;28;20040;-76
2023/10/10 12:41:15;;;;;;;2.88;1.75;;;;;;;19.44;73.54;153585.81;10542924;28;20075;-76
2023/10/10 12:46:20;;;;;;;2.53;1.88;;;;;;;19.57;72.31;153619.59;10542164;28;20032;-76
2023/10/10 12:51:23;;;;;;;1.90;1.73;;;;;;;19.64;72.23;153636.53;10524614;28;20105;-76
2023/10/10 12:56:26;;;;;;;2.05;1.85;;;;;;;19.91;72.06;153706.69;10540658;28;20140;-76
2023/10/10 13:01:32;;;;;;;1.90;1.75;;;;;;;19.70;73.31;153650.81;10542785;28;20044;-76
2023/10/10 13:06:39;;;;;;;2.08;1.90;;;;;;;19.75;73.79;153665.13;10524047;28;20076;-76
2023/10/10 13:11:44;;;;;;;3.30;2.17;;;;;;;19.46;78.25;153589.69;10523653;28;20093;-76
2023/10/10 13:21:48;;;;;;;4.28;3.88;;;;;;;19.25;86.78;153536.41;10540512;28;20496;-75
2023/10/10 13:26:50;;;;;;;2.83;2.63;;;;;;;18.77;87.18;153414.31;10540080;28;20040;-75
2023/10/10 13:31:51;;;;;;;2.50;2.30;;;;;;;18.81;88.94;153424.69;10541036;28;20044;-76
2023/10/10 13:36:53;;;;;;;2.58;2.38;;;;;;;18.98;89.17;153467.56;10530050;28;20071;-76
2023/10/10 13:41:55;;;;;;;2.90;2.70;;;;;;;18.95;87.40;153459.78;10547887;28;20040;-76
2023/10/10 13:47:00;;;;;;;2.53;2.33;;;;;;;18.96;86.50;153463.69;10529483;28;20036;-76
2023/10/10 13:52:05;;;;;;;2.58;2.38;;;;;;;18.83;88.40;153429.91;10551107;28;20101;-79
2023/10/10 13:57:07;;;;;;;3.60;2.80;;;;;;;18.98;86.45;153467.56;10550684;28;20546;-76
2023/10/10 14:02:10;;;;;;;3.53;2.97;;;;;;;19.29;84.99;153546.81;10547800;28;20040;-76
2023/10/10 14:07:16;;;;;;;3.67;3.05;;;;;;;19.54;81.83;153611.78;10546937;28;20123;-76
2023/10/10 14:12:20;;;;;;;3.07;2.50;;;;;;;19.56;78.63;153615.69;10547276;28;20488;-76
2023/10/10 14:17:22;;;;;;;2.67;2.42;;;;;;;19.61;78.42;153630.06;10548237;28;20036;-76
2023/10/10 14:22:25;;;;;;;4.20;2.90;;;;;;;19.79;75.73;153675.53;10546539;28;20496;-76
2023/10/10 14:27:29;;;;;;;3.95;2.72;;;;;;;19.79;74.66;153675.53;10546764;28;20161;-76
2023/10/10 14:32:30;;;;;;;2.97;2.25;;;;;;;19.60;78.22;153626.06;10547365;28;20492;-77
2023/10/10 14:37:40;;;;;;;2.53;2.22;;;;;;;19.70;74.78;153652.16;10531034;28;20427;-77
2023/10/10 14:43:06;;;;;;;2.35;2.15;;;;;;;19.45;77.51;153587.13;10546962;28;20115;-77
2023/10/10 14:48:07;;;;;;;4.40;2.72;;;;;;;19.28;78.80;153544.22;10546593;28;20040;-76
2023/10/10 14:53:09;;;;;;;2.58;2.38;;;;;;;19.38;80.37;153570.19;10547539;28;20046;-77
2023/10/10 14:58:13;;;;;;;3.53;2.72;;;;;;;19.48;78.63;153594.88;10546475;28;20040;-77
2023/10/10 15:03:18;;;;;;;2.60;2.40;;;;;;;19.38;80.64;153570.19;10529979;28;20052;-77
2023/10/10 15:08:22;;;;;;;1.85;1.75;;;;;;;19.09;82.75;153496.19;10547737;28;20032;-78
2023/10/10 15:13:25;;;;;;;2.45;2.22;;;;;;;19.24;83.95;153533.84;10545664;28;20130;-77
2023/10/10 15:18:30;;;;;;;2.50;2.17;;;;;;;19.03;87.05;153481.84;10528761;28;20054;-79
2023/10/10 15:23:32;;;;;;;2.83;2.55;;;;;;;18.90;87.73;153449.41;10547109;28;20072;-77
2023/10/10 15:28:34;;;;;;;2.50;2.30;;;;;;;18.79;87.99;153419.53;10529725;28;20399;-77
2023/10/10 15:33:36;;;;;;;2.55;2.35;;;;;;;18.61;89.64;153374.03;10526831;28;20044;-76
2023/10/10 15:38:38;;;;;;;2.40;2.17;;;;;;;18.55;91.21;153359.75;10543956;28;20191;-77
2023/10/10 15:43:46;;;;;;;2.60;2.05;;;;;;;18.45;95.90;153332.47;10549067;28;20051;-77
2023/10/10 15:48:48;;;;;;;3.05;2.78;;;;;;;18.32;98.42;153300.00;10545685;28;20043;-76
2023/10/10 15:53:50;;;;;;;2.97;2.67;;;;;;;18.07;100.00;153236.41;10546339;28;20048;-75
2023/10/10 15:58:53;;;;;;;2.83;2.60;;;;;;;18.01;100.00;153220.81;10541935;28;20058;-75
2023/10/10 16:04:00;;;;;;;2.40;2.20;;;;;;;17.93;100.00;153200.03;10545783;28;20048;-76
2023/10/10 16:09:29;;;;;;;3.47;3.15;;;;;;;17.82;100.00;153174.09;10525076;28;20403;-75
2023/10/10 16:14:36;;;;;;;3.28;2.97;;;;;;;17.75;100.00;153155.94;10542505;28;20454;-76
2023/10/10 16:19:42;;;;;;;3.67;3.38;;;;;;;17.61;100.00;153119.50;10542146;28;20119;-75
2023/10/10 16:24:44;;;;;;;3.38;3.13;;;;;;;17.73;100.00;153150.66;10542947;28;20040;-76
2023/10/10 16:29:46;;;;;;;3.53;3.05;;;;;;;17.45;100.00;153079.31;10539284;28;20044;-77
2023/10/10 16:34:48;;;;;;;4.15;3.80;;;;;;;17.31;100.00;153044.28;10521072;28;20040;-76
2023/10/10 16:39:50;;;;;;;4.32;3.85;;;;;;;17.18;100.00;153010.56;10543408;28;20127;-75
2023/10/10 16:44:53;;;;;;;3.85;3.33;;;;;;;17.18;100.00;153009.22;10522578;28;20048;-75
2023/10/10 16:49:55;;;;;;;4.00;3.70;;;;;;;17.05;100.00;152976.81;10524537;28;20070;-76
2023/10/10 16:54:57;;;;;;;4.45;4.05;;;;;;;17.06;100.00;152980.69;10540457;28;20047;-76
2023/10/10 16:59:59;;;;;;;4.47;4.07;;;;;;;16.94;100.00;152948.25;10540480;28;20598;-76
2023/10/10 17:05:04;;;;;;;4.03;3.72;;;;;;;17.01;100.00;152966.44;10540936;28;20119;-75
2023/10/10 17:10:13;;;;;;;3.38;3.08;;;;;;;16.83;100.00;152922.34;10549504;28;20480;-75
2023/10/10 17:15:21;;;;;;;3.50;3.20;;;;;;;16.60;100.00;152863.94;10550463;28;20036;-75
2023/10/10 17:20:24;;;;;;;3.75;3.40;;;;;;;16.51;100.00;152839.25;10531253;28;20083;-76
2023/10/10 17:25:28;;;;;;;5.25;4.60;;;;;;;16.56;100.00;152852.25;10532210;28;20135;-76
2023/10/10 17:30:30;;;;;;;3.72;3.42;;;;;;;16.39;100.00;152810.75;10552164;28;20052;-76
2023/10/10 17:35:31;;;;;;;4.05;3.75;;;;;;;16.30;100.00;152786.13;10515841;28;20093;-75
2023/10/10 17:40:39;;;;;;;5.00;4.60;;;;;;;16.32;100.00;152792.56;10550136;28;20044;-76
2023/10/10 17:45:42;;;;;;;4.15;3.85;;;;;;;16.56;100.00;152852.25;10532382;28;20040;-76
2023/10/10 17:50:44;;;;;;;4.90;4.30;;;;;;;16.58;100.00;152857.44;10531286;28;20407;-76
2023/10/10 17:55:51;;;;;;;4.80;4.40;;;;;;;16.49;100.00;152835.38;10534909;28;20063;-76
2023/10/10 18:00:55;;;;;;;4.93;4.53;;;;;;;16.47;100.00;152828.88;10534244;28;20495;-76
2023/10/10 18:05:57;;;;;;;4.90;4.40;;;;;;;16.46;100.00;152827.59;10531473;28;20048;-76
2023/10/10 18:11:03;;;;;;;4.93;4.53;;;;;;;16.27;100.00;152779.63;10548518;28;20040;-75
2023/10/10 18:16:09;;;;;;;5.80;5.20;;;;;;;16.15;100.00;152749.78;10533496;28;20149;-75
2023/10/10 18:21:11;;;;;;;5.40;4.90;;;;;;;16.22;100.00;152765.38;10547006;28;20110;-75
2023/10/10 18:26:22;;;;;;;5.70;5.30;;;;;;;16.15;100.00;152748.50;10528915;28;20070;-75
2023/10/10 18:31:29;;;;;;;5.95;5.45;;;;;;;16.25;100.00;152773.16;10549587;28;20042;-75
2023/10/10 18:36:36;;;;;;;6.25;5.85;;;;;;;16.36;100.00;152801.66;10533881;28;20042;-75
2023/10/10 18:41:42;;;;;;;5.82;5.32;;;;;;;16.35;100.00;152800.38;10548685;28;20066;-75
2023/10/10 18:46:45;;;;;;;5.60;5.10;;;;;;;16.41;100.00;152814.63;10547262;28;20040;-75
2023/10/10 18:51:46;;;;;;;5.97;5.47;;;;;;;16.33;100.00;152793.88;10546978;28;20123;-76
2023/10/10 18:56:49;;;;;;;6.03;5.53;;;;;;;16.11;100.00;152738.13;10546735;28;20095;-76
2023/10/10 19:01:52;;;;;;;6.05;5.57;;;;;;;15.91;100.00;152686.28;10549540;28;20126;-75
2023/10/10 19:06:54;;;;;;;5.90;5.45;;;;;;;15.74;100.00;152643.50;10510988;28;20362;-76
2023/10/10 19:11:57;;;;;;;5.65;5.25;;;;;;;15.72;100.00;152639.66;10546289;28;20454;-75
2023/10/10 19:17:00;;;;;;;6.25;5.75;;;;;;;15.58;100.00;152603.28;10544866;28;20032;-75
2023/10/10 19:22:04;;;;;;;6.13;5.65;;;;;;;15.66;100.00;152622.78;10531008;28;20098;-75
2023/10/10 19:27:10;;;;;;;6.45;5.95;;;;;;;15.52;100.00;152587.75;10526536;28;20044;-76
2023/10/10 19:32:13;;;;;;;5.60;5.20;;;;;;;15.47;100.00;152574.78;10544448;28;20036;-75
2023/10/10 19:37:18;;;;;;;6.53;5.93;;;;;;;15.48;100.00;152578.66;10544261;28;20127;-76
2023/10/10 19:42:21;;;;;;;8.98;5.70;;;;;;;15.56;100.00;152599.41;10523919;28;20131;-76
2023/10/10 19:47:26;;;;;;;6.50;6.10;;;;;;;15.64;100.00;152618.91;10524439;28;20040;-75
2023/10/10 19:52:28;;;;;;;5.72;5.22;;;;;;;15.38;100.00;152554.03;10544149;28;20067;-77
2023/10/10 19:57:29;;;;;;;6.28;5.78;;;;;;;15.21;100.00;152510.00;10543917;28;20086;-76
2023/10/10 20:02:31;;;;;;;7.75;5.50;;;;;;;15.04;100.00;152467.22;10511613;28;20043;-75
2023/10/10 20:07:36;;;;;;;5.65;5.20;;;;;;;14.97;100.00;152447.84;10503157;28;20037;-75
2023/10/10 20:12:38;;;;;;;6.50;6.05;;;;;;;15.02;100.00;152462.06;10501329;28;20167;-75
2023/10/10 20:17:45;;;;;;;5.70;5.22;;;;;;;15.14;100.00;152493.16;10499997;28;20036;-76
2023/10/10 20:22:47;;;;;;;8.23;6.38;;;;;;;15.22;100.00;152512.56;10501004;28;20102;-76
2023/10/10 20:27:50;;;;;;;5.97;5.55;;;;;;;15.11;100.00;152484.09;10487532;28;20090;-75
2023/10/10 20:32:53;;;;;;;6.93;6.32;;;;;;;15.14;100.00;152491.88;10483348;28;20055;-75
2023/10/10 20:37:56;;;;;;;7.40;6.18;;;;;;;15.15;100.00;152494.47;10499579;28;20083;-75
2023/10/10 20:43:00;;;;;;;6.80;6.20;;;;;;;15.03;100.00;152464.66;10500089;28;20408;-75
2023/10/10 20:48:08;;;;;;;6.80;6.30;;;;;;;14.84;100.00;152415.44;10467626;28;20094;-76
2023/10/10 20:53:11;;;;;;;7.00;6.30;;;;;;;14.78;100.00;152399.88;10499802;28;20135;-76
2023/10/10 20:58:14;;;;;;;7.13;6.50;;;;;;;14.82;100.00;152410.25;10482395;28;20041;-75
2023/10/10 21:03:16;;;;;;;7.65;6.95;;;;;;;14.84;100.00;152416.75;10500838;28;20067;-76
2023/10/10 21:08:19;;;;;;;5.55;5.05;;;;;;;14.98;100.00;152450.41;10501695;28;20036;-75
2023/10/10 21:13:21;;;;;;;4.68;4.00;;;;;;;15.06;100.00;152472.44;10503304;28;20072;-76
2023/10/10 21:18:23;;;;;;;4.97;2.33;;;;;;;15.72;100.00;152638.34;10482423;28;20044;-77
2023/10/10 21:23:27;;;;;;;2.15;1.90;;;;;;;16.78;90.58;152908.09;10499764;28;20078;-75
2023/10/10 21:28:28;;;;;;;2.33;1.80;;;;;;;17.25;86.43;153027.41;10498649;28;20040;-74
2023/10/10 21:33:30;;;;;;;2.90;1.92;;;;;;;17.39;83.87;153065.00;10501037;28;20094;-74
2023/10/10 21:38:36;;;;;;;3.83;1.70;;;;;;;17.46;82.00;153080.59;10498659;28;20094;-74
2023/10/10 21:43:38;;;;;;;2.63;1.42;;;;;;;17.62;79.08;153123.44;10498171;28;20044;-75
2023/10/10 21:48:40;;;;;;;2.38;1.50;;;;;;;18.12;74.32;153250.69;10498541;28;20115;-77
2023/10/10 21:53:42;;;;;;;3.05;1.70;;;;;;;18.04;74.97;153228.59;10502526;28;20141;-74
2023/10/10 21:58:45;;;;;;;2.25;1.33;;;;;;;18.19;73.18;153266.25;10506988;28;20041;-74
2023/10/10 22:03:47;;;;;;;1.90;1.60;;;;;;;18.17;73.03;153261.06;10507182;28;20070;-74
2023/10/10 22:08:49;;;;;;;3.03;1.85;;;;;;;18.23;71.52;153276.63;10506205;28;20443;-75
2023/10/10 22:13:51;;;;;;;2.20;1.63;;;;;;;18.00;73.63;153219.50;10508377;28;20048;-75
2023/10/10 22:18:53;;;;;;;3.00;1.52;;;;;;;17.65;74.88;153131.19;10508096;28;20060;-75
2023/10/10 22:23:55;;;;;;;4.55;1.67;;;;;;;17.46;75.62;153080.59;10487453;28;20094;-74
2023/10/10 22:28:57;;;;;;;2.13;1.30;;;;;;;17.19;76.63;153011.84;10504677;28;20088;-75
2023/10/10 22:33:59;;;;;;;3.63;1.88;;;;;;;17.19;76.78;153011.84;10486370;28;20048;-75
2023/10/10 22:39:06;;;;;;;2.45;1.92;;;;;;;16.96;78.78;152954.75;10507137;28;20067;-75
2023/10/10 22:44:08;;;;;;;3.22;1.60;;;;;;;16.86;80.39;152928.78;10504773;28;20044;-74
2023/10/10 22:49:10;;;;;;;2.72;2.13;;;;;;;16.43;83.19;152819.84;10504766;28;20033;-75
2023/10/10 22:54:12;;;;;;;2.30;1.60;;;;;;;16.21;86.82;152762.78;10485209;28;20060;-74
2023/10/10 22:59:15;;;;;;;3.95;2.28;;;;;;;16.11;87.10;152739.47;10505325;28;20044;-75
2023/10/10 23:04:17;;;;;;;2.50;1.80;;;;;;;16.24;86.62;152771.81;10484785;28;20047;-75
2023/10/10 23:09:19;;;;;;;3.40;2.03;;;;;;;16.05;88.47;152722.56;10502161;28;20090;-75
2023/10/10 23:14:20;;;;;;;4.05;2.25;;;;;;;15.93;89.40;152692.75;10502507;28;20052;-75
2023/10/10 23:19:23;;;;;;;3.33;2.22;;;;;;;15.88;91.31;152681.09;10485154;28;20040;-76
2023/10/10 23:24:24;;;;;;;2.78;2.05;;;;;;;15.87;89.82;152677.22;10504043;28;20044;-75
2023/10/10 23:29:26;;;;;;;3.25;2.22;;;;;;;15.98;85.70;152705.75;10502336;28;20044;-76
2023/10/10 23:34:29;;;;;;;3.30;2.05;;;;;;;15.83;88.58;152668.13;10485005;28;20075;-76
2023/10/10 23:39:34;;;;;;;2.28;1.70;;;;;;;16.19;84.61;152757.56;10502309;28;20423;-75
2023/10/10 23:44:41;;;;;;;3.03;1.83;;;;;;;16.08;85.32;152730.38;10504708;28;20059;-75
2023/10/10 23:49:46;;;;;;;3.10;2.20;;;;;;;15.89;85.44;152683.72;10502007;28;20075;-75
2023/10/10 23:54:48;;;;;;;2.67;1.90;;;;;;;15.91;86.14;152687.59;10500987;28;20075;-75
2023/10/10 23:59:51;;;;;;;3.22;2.03;;;;;;;15.75;88.23;152646.09;10501306;28;20044;-75
